Time;durP1;ratioP1;P1;durP2;ratioP2;P2;SDS_P1;SDS_P2;PMS_P1;PMS_P2;Temp;Humidity;BMP_temperature;BMP_pressure;BME280_temperature;BME280_humidity;BME280_pressure;Samples;Min_cycle;Max_cycle;Signal;HPM_P1;HPM_P2
2023/07/03 00:00:53;;;;;;;16.70;5.70;;;;;;;16.23;100.00;98391.00;135601;1277;23959;-65
2023/07/03 00:04:15;;;;;;;18.10;6.00;;;;;;;16.21;100.00;98388.38;135723;1277;22555;-65
2023/07/03 00:07:19;;;;;;;17.30;6.20;;;;;;;16.14;100.00;98389.23;135718;1259;24403;-65
2023/07/03 00:10:22;;;;;;;17.00;6.00;;;;;;;16.04;100.00;98393.42;135725;1277;22518;-65
2023/07/03 00:13:24;;;;;;;;;;;;;;;15.99;100.00;98391.59;135749;1277;22543;-65
2023/07/03 00:16:26;;;;;;;18.00;6.10;;;;;;;15.97;100.00;98391.45;135741;1277;22617;-65
2023/07/03 00:19:30;;;;;;;16.60;5.80;;;;;;;15.99;100.00;98387.16;135721;1277;22551;-65
2023/07/03 00:22:33;;;;;;;17.00;5.90;;;;;;;16.00;100.00;98389.93;135711;1277;22545;-65
2023/07/03 00:25:37;;;;;;;18.70;6.10;;;;;;;15.97;100.00;98393.05;135682;1277;22544;-65
2023/07/03 00:28:40;;;;;;;19.80;6.10;;;;;;;15.89;100.00;98399.77;135722;1277;24206;-65
2023/07/03 00:31:42;;;;;;;;;;;;;;;15.77;100.00;98403.41;135747;1277;22510;-67
2023/07/03 00:34:45;;;;;;;;;;;;;;;15.70;100.00;98404.23;135734;1277;22524;-65
2023/07/03 00:37:48;;;;;;;19.10;6.50;;;;;;;15.65;100.00;98403.96;135699;1277;25425;-66
2023/07/03 00:40:51;;;;;;;18.90;6.40;;;;;;;15.55;100.00;98403.96;135701;1277;22574;-65
2023/07/03 00:43:53;;;;;;;;;;;;;;;15.49;100.00;98407.52;135727;1277;25046;-65
2023/07/03 00:46:55;;;;;;;17.30;5.90;;;;;;;15.46;100.00;98407.58;135774;1277;22546;-65
2023/07/03 00:49:58;;;;;;;17.20;5.90;;;;;;;15.37;100.00;98408.88;135697;1277;22538;-66
2023/07/03 00:53:00;;;;;;;16.90;5.50;;;;;;;15.36;100.00;98413.16;135737;1277;26592;-66
2023/07/03 00:56:03;;;;;;;;;;;;;;;15.34;100.00;98415.34;135724;1277;22528;-65
2023/07/03 00:59:06;;;;;;;;;;;;;;;15.26;100.00;98420.39;135732;1277;22543;-65
2023/07/03 01:02:08;;;;;;;14.80;5.50;;;;;;;15.15;100.00;98421.91;135701;1277;22533;-65
2023/07/03 01:05:13;;;;;;;18.30;5.80;;;;;;;15.15;100.00;98425.41;135759;1277;22520;-66
2023/07/03 01:08:15;;;;;;;16.60;6.00;;;;;;;15.11;100.00;98424.52;135705;1277;22512;-65
2023/07/03 01:11:18;;;;;;;;;;;;;;;15.18;100.00;98427.10;135743;1259;22497;-66
2023/07/03 01:14:22;;;;;;;17.80;6.60;;;;;;;15.19;100.00;98425.77;135702;1277;22545;-65
2023/07/03 01:17:25;;;;;;;17.50;6.40;;;;;;;14.93;100.00;98422.52;135766;1277;22642;-66
2023/07/03 01:20:27;;;;;;;;;;;;;;;14.90;100.00;98424.15;135711;1259;22756;-65
2023/07/03 01:23:31;;;;;;;17.70;5.40;;;;;;;14.86;100.00;98422.89;135756;1258;22527;-65
2023/07/03 01:26:34;;;;;;;17.30;6.10;;;;;;;14.83;100.00;98420.37;135698;1276;22539;-65
2023/07/03 01:29:37;;;;;;;15.70;5.60;;;;;;;14.79;100.00;98416.63;135781;1277;22516;-66
2023/07/03 01:32:41;;;;;;;17.80;5.50;;;;;;;14.70;100.00;98416.54;135762;1277;22523;-65
2023/07/03 01:35:43;;;;;;;18.10;5.60;;;;;;;14.63;100.00;98412.02;135598;1259;23002;-65
2023/07/03 01:38:46;;;;;;;;;;;;;;;14.55;100.00;98415.45;135731;1277;22633;-65
2023/07/03 01:41:48;;;;;;;18.50;6.30;;;;;;;14.54;100.00;98415.58;135714;1277;22525;-64
2023/07/03 01:44:51;;;;;;;;;;;;;;;14.49;100.00;98416.17;135669;1277;22512;-65
2023/07/03 01:47:53;;;;;;;14.60;5.50;;;;;;;14.42;100.00;98418.53;135722;1277;22527;-65
2023/07/03 01:50:56;;;;;;;14.60;5.00;;;;;;;14.38;100.00;98417.42;135728;1277;22635;-65
2023/07/03 01:53:58;;;;;;;;;;;;;;;14.32;100.00;98418.23;135745;1277;26641;-66
2023/07/03 01:57:01;;;;;;;17.10;5.10;;;;;;;14.34;100.00;98417.39;135632;1277;22546;-64
2023/07/03 02:00:05;;;;;;;14.30;5.40;;;;;;;14.32;100.00;98417.39;135725;1277;22530;-65
2023/07/03 02:03:09;;;;;;;20.40;5.90;;;;;;;14.21;100.00;98418.63;135722;1277;22533;-65
2023/07/03 02:06:12;;;;;;;19.30;6.00;;;;;;;14.22;100.00;98416.42;135719;1277;22529;-65
2023/07/03 02:09:14;;;;;;;16.10;5.60;;;;;;;14.18;100.00;98417.26;135711;1277;22656;-66
2023/07/03 02:12:17;;;;;;;17.00;5.20;;;;;;;14.21;100.00;98421.11;135721;1277;22534;-66
2023/07/03 02:15:20;;;;;;;18.10;5.70;;;;;;;14.10;100.00;98421.94;135728;1277;22539;-66
2023/07/03 02:18:23;;;;;;;15.80;5.10;;;;;;;14.11;100.00;98424.92;135737;1277;25531;-66
2023/07/03 02:21:25;;;;;;;16.20;5.60;;;;;;;14.08;100.00;98428.30;135719;1258;22544;-66
2023/07/03 02:24:28;;;;;;;;;;;;;;;14.04;100.00;98432.30;135700;1259;25452;-65
2023/07/03 02:27:30;;;;;;;;;;;;;;;13.95;100.00;98430.25;135674;1277;25339;-65
2023/07/03 02:30:33;;;;;;;18.00;6.20;;;;;;;13.95;100.00;98430.19;135685;1259;24373;-65
2023/07/03 02:33:35;;;;;;;;;;;;;;;13.92;100.00;98431.36;135647;1277;22517;-65
2023/07/03 02:36:38;;;;;;;19.00;6.30;;;;;;;13.87;100.00;98433.69;135719;1275;22524;-66
2023/07/03 02:39:40;;;;;;;17.60;6.20;;;;;;;13.83;100.00;98432.60;135754;1277;22549;-66
2023/07/03 02:42:43;;;;;;;;;;;;;;;13.88;100.00;98431.36;135725;1277;22512;-66
2023/07/03 02:45:45;;;;;;;15.50;5.90;;;;;;;13.93;100.00;98432.88;135728;1277;25259;-65
2023/07/03 02:48:48;;;;;;;16.90;6.00;;;;;;;13.96;100.00;98434.88;135686;1277;22521;-66
2023/07/03 02:51:50;;;;;;;;;;;;;;;13.95;100.00;98432.19;135729;1278;22505;-66
2023/07/03 02:54:53;;;;;;;16.70;6.00;;;;;;;14.01;100.00;98431.38;135704;1277;22531;-66
2023/07/03 02:57:57;;;;;;;;;;;;;;;14.04;100.00;98430.92;135737;1277;22507;-65
2023/07/03 03:01:01;;;;;;;19.00;6.60;;;;;;;14.03;100.00;98428.33;135716;1277;22507;-66
2023/07/03 03:04:03;;;;;;;17.00;5.60;;;;;;;14.09;100.00;98432.25;135713;1277;22564;-65
2023/07/03 03:07:05;;;;;;;;;;;;;;;14.08;100.00;98436.38;135729;1260;24219;-65
2023/07/03 03:10:08;;;;;;;;;;;;;;;14.15;100.00;98438.85;135719;1277;22506;-67
2023/07/03 03:13:11;;;;;;;16.70;5.10;;;;;;;14.33;100.00;98439.60;135731;1277;22520;-65
2023/07/03 03:16:13;;;;;;;16.20;5.00;;;;;;;14.45;100.00;98439.86;135771;1273;22565;-65
2023/07/03 03:19:16;;;;;;;18.20;6.10;;;;;;;14.58;100.00;98443.55;135728;1277;22531;-65
2023/07/03 03:22:18;;;;;;;;;;;;;;;14.71;100.00;98444.27;135732;1277;22520;-65
2023/07/03 03:25:21;;;;;;;16.70;5.90;;;;;;;14.79;100.00;98446.74;135691;1277;22524;-65
2023/07/03 03:28:23;;;;;;;17.30;5.70;;;;;;;14.83;100.00;98446.95;135721;1277;22546;-67
2023/07/03 03:31:26;;;;;;;19.50;5.10;;;;;;;14.89;100.00;98443.44;135680;1261;22521;-65
2023/07/03 03:34:28;;;;;;;14.50;5.20;;;;;;;15.03;100.00;98442.41;135663;1259;24237;-66
2023/07/03 03:37:31;;;;;;;;;;;;;;;15.20;100.00;98441.31;135681;1270;22528;-66
2023/07/03 03:40:33;;;;;;;16.90;4.90;;;;;;;15.26;100.00;98439.95;135621;1270;23355;-65
2023/07/03 03:43:35;;;;;;;15.60;5.70;;;;;;;15.35;100.00;98441.81;135721;1275;22551;-65
2023/07/03 03:46:39;;;;;;;19.20;5.90;;;;;;;15.48;100.00;98444.42;135702;1274;22544;-65
2023/07/03 03:49:42;;;;;;;20.80;7.30;;;;;;;15.62;100.00;98439.84;135688;1269;25501;-65
2023/07/03 03:52:44;;;;;;;;;;;;;;;15.84;100.00;98442.34;135701;1275;22504;-64
2023/07/03 03:55:47;;;;;;;19.80;7.40;;;;;;;16.02;100.00;98444.30;135755;1277;22550;-67
2023/07/03 03:58:50;;;;;;;19.80;6.10;;;;;;;16.14;100.00;98442.50;135703;1275;22555;-65
2023/07/03 04:01:53;;;;;;;15.10;5.00;;;;;;;16.26;100.00;98440.84;135663;1277;22528;-65
2023/07/03 04:04:56;;;;;;;15.00;5.20;;;;;;;16.35;100.00;98440.96;135673;1277;22548;-65
2023/07/03 04:07:58;;;;;;;16.60;5.10;;;;;;;16.60;100.00;98437.45;135485;1277;22531;-65
2023/07/03 04:11:00;;;;;;;;;;;;;;;16.80;100.00;98439.78;135447;1277;22612;-65
2023/07/03 04:14:03;;;;;;;19.70;5.50;;;;;;;16.97;100.00;98437.90;135595;1277;24285;-65
2023/07/03 04:17:08;;;;;;;22.20;5.80;;;;;;;17.24;100.00;98439.49;135611;1268;24218;-65
2023/07/03 04:20:13;;;;;;;23.30;6.60;;;;;;;17.26;100.00;98443.83;135619;1260;22537;-65
2023/07/03 04:23:15;;;;;;;21.00;7.20;;;;;;;17.36;100.00;98444.34;135718;1268;24215;-65
2023/07/03 04:26:18;;;;;;;23.20;7.50;;;;;;;17.60;100.00;98448.42;135669;1277;22536;-65
2023/07/03 04:29:21;;;;;;;;;;;;;;;17.76;100.00;98445.52;135616;1277;22501;-65
2023/07/03 04:32:23;;;;;;;24.80;7.10;;;;;;;17.80;100.00;98442.95;135730;1269;22545;-64
2023/07/03 04:35:26;;;;;;;22.70;7.60;;;;;;;17.75;100.00;98436.39;135702;1277;22538;-65
2023/07/03 04:38:28;;;;;;;;;;;;;;;17.82;100.00;98432.86;135717;1277;22508;-65
2023/07/03 04:41:30;;;;;;;20.60;7.10;;;;;;;17.97;100.00;98433.93;135624;1260;22524;-65
2023/07/03 04:44:33;;;;;;;20.10;6.60;;;;;;;18.10;100.00;98436.59;135620;1277;22531;-64
2023/07/03 04:47:37;;;;;;;21.30;7.10;;;;;;;18.21;100.00;98437.09;135678;1276;22531;-65
2023/07/03 04:50:40;;;;;;;23.00;6.50;;;;;;;18.31;100.00;98436.81;135736;1277;22546;-65
2023/07/03 04:53:42;;;;;;;20.30;6.50;;;;;;;18.48;100.00;98443.27;135707;1268;22639;-65
2023/07/03 04:56:46;;;;;;;20.20;6.80;;;;;;;18.66;100.00;98442.67;135709;1260;22912;-64
2023/07/03 04:59:49;;;;;;;24.20;7.30;;;;;;;18.98;100.00;98439.63;135707;1277;22538;-65
2023/07/03 05:02:52;;;;;;;25.10;7.20;;;;;;;19.17;100.00;98441.30;135661;1277;22647;-64
2023/07/03 05:05:54;;;;;;;22.50;7.40;;;;;;;19.33;100.00;98442.85;135738;1277;25372;-65
2023/07/03 05:08:57;;;;;;;29.30;7.40;;;;;;;19.43;100.00;98448.52;135692;1267;23942;-65
2023/07/03 05:11:59;;;;;;;22.90;7.00;;;;;;;19.63;100.00;98443.13;135696;1278;22538;-65
2023/07/03 05:15:03;;;;;;;25.90;8.10;;;;;;;19.82;100.00;98445.58;135737;1278;22992;-65
2023/07/03 05:18:05;;;;;;;26.10;9.90;;;;;;;20.01;100.00;98445.83;135730;1277;22534;-64
2023/07/03 05:21:08;;;;;;;29.30;10.20;;;;;;;20.29;100.00;98445.01;135700;1277;22535;-65
2023/07/03 05:24:10;;;;;;;25.10;9.60;;;;;;;20.61;100.00;98446.09;135725;1277;22531;-65
2023/07/03 05:27:13;;;;;;;26.30;10.20;;;;;;;20.95;100.00;98455.74;135726;1267;22529;-64
2023/07/03 05:30:15;;;;;;;24.50;9.70;;;;;;;21.31;100.00;98456.13;135673;1267;22764;-64
2023/07/03 05:33:18;;;;;;;26.00;8.30;;;;;;;21.49;100.00;98459.73;135688;1260;22600;-64
2023/07/03 05:36:20;;;;;;;26.90;8.10;;;;;;;21.60;100.00;98459.96;135714;1277;22555;-65
2023/07/03 05:39:24;;;;;;;25.00;10.50;;;;;;;21.61;100.00;98459.45;135672;1278;22546;-64
2023/07/03 05:42:26;;;;;;;31.70;13.80;;;;;;;21.70;100.00;98460.05;135756;1264;22613;-65
2023/07/03 05:45:29;;;;;;;28.20;12.20;;;;;;;21.75;100.00;98461.77;135317;1277;487268;-66
2023/07/03 05:48:31;;;;;;;30.50;11.90;;;;;;;21.93;100.00;98457.77;135690;1276;22533;-65
2023/07/03 05:51:33;;;;;;;34.50;13.80;;;;;;;22.29;100.00;98459.78;135718;1277;22539;-65
2023/07/03 05:54:36;;;;;;;27.40;11.30;;;;;;;22.69;99.60;98464.00;135669;1278;22534;-64
2023/07/03 05:57:38;;;;;;;32.00;11.90;;;;;;;22.84;96.18;98469.41;135683;1277;22538;-64
2023/07/03 06:00:41;;;;;;;28.50;11.60;;;;;;;22.91;91.90;98473.77;135745;1277;22576;-66
2023/07/03 06:03:44;;;;;;;28.90;11.60;;;;;;;23.02;92.29;98473.33;135684;1277;25414;-64
2023/07/03 06:06:47;;;;;;;28.60;11.30;;;;;;;23.06;92.03;98474.46;135717;1277;22525;-65
2023/07/03 06:09:49;;;;;;;27.40;10.00;;;;;;;23.30;91.72;98473.44;135725;1277;24404;-66
2023/07/03 06:12:52;;;;;;;29.20;8.90;;;;;;;23.85;90.30;98472.40;135724;1278;23003;-66
2023/07/03 06:15:54;;;;;;;25.10;8.60;;;;;;;24.05;88.74;98479.45;135730;1277;25246;-65
2023/07/03 06:18:57;;;;;;;22.90;8.20;;;;;;;24.00;85.49;98478.23;135694;1264;22532;-64
2023/07/03 06:21:59;;;;;;;24.20;8.40;;;;;;;24.04;84.53;98485.77;135718;1278;22632;-64
2023/07/03 06:25:02;;;;;;;24.20;7.40;;;;;;;24.27;85.59;98481.91;135702;1268;22535;-64
2023/07/03 06:28:04;;;;;;;24.50;7.60;;;;;;;24.79;80.61;98487.69;135703;1260;22542;-64
2023/07/03 06:31:07;;;;;;;25.00;7.60;;;;;;;25.14;80.13;98488.38;135730;1278;22570;-65
2023/07/03 06:34:09;;;;;;;22.00;7.30;;;;;;;25.25;74.96;98493.09;135630;1278;22524;-64
2023/07/03 06:37:12;;;;;;;23.60;8.20;;;;;;;25.06;74.27;98498.63;135701;1277;22538;-66
2023/07/03 06:40:15;;;;;;;24.70;7.90;;;;;;;25.13;74.44;98500.76;135701;1277;22548;-64
2023/07/03 06:43:18;;;;;;;24.80;8.00;;;;;;;25.47;72.61;98500.25;135714;1277;22535;-64
2023/07/03 06:46:20;;;;;;;22.30;7.40;;;;;;;25.95;72.26;98499.05;135726;1278;22562;-64
2023/07/03 06:49:24;;;;;;;28.50;9.20;;;;;;;26.46;71.13;98496.23;135634;1278;22539;-64
2023/07/03 06:52:27;;;;;;;23.20;8.00;;;;;;;26.65;65.03;98500.45;135713;1277;24846;-64
2023/07/03 06:55:29;;;;;;;24.00;7.80;;;;;;;26.70;63.49;98502.70;135713;1267;24209;-64
2023/07/03 06:58:31;;;;;;;26.60;8.30;;;;;;;26.70;57.66;98497.02;135722;1260;22549;-64
2023/07/03 07:01:34;;;;;;;23.80;7.60;;;;;;;26.48;56.88;98495.88;135653;1260;22635;-64
2023/07/03 07:04:36;;;;;;;25.10;8.50;;;;;;;26.37;58.05;98493.66;135709;1277;24396;-65
2023/07/03 07:07:39;;;;;;;24.60;8.70;;;;;;;26.73;56.84;98497.14;135741;1260;22527;-63
2023/07/03 07:10:41;;;;;;;22.30;7.60;;;;;;;26.97;51.31;98494.85;135688;1254;22539;-63
2023/07/03 07:13:43;;;;;;;25.80;7.90;;;;;;;26.96;52.11;98490.80;135711;1261;23413;-64
2023/07/03 07:16:46;;;;;;;25.40;8.40;;;;;;;27.27;53.52;98487.58;135703;1260;22538;-64
2023/07/03 07:19:49;;;;;;;22.80;7.80;;;;;;;27.46;50.45;98488.77;135748;1278;22547;-63
2023/07/03 07:22:51;;;;;;;21.90;8.00;;;;;;;27.50;50.89;98487.71;135711;1278;22535;-64
2023/07/03 07:25:54;;;;;;;22.40;7.20;;;;;;;27.57;49.90;98487.73;135745;1277;22538;-63
2023/07/03 07:28:56;;;;;;;25.70;8.40;;;;;;;27.63;51.62;98489.63;135720;1278;23935;-64
2023/07/03 07:31:59;;;;;;;25.50;8.10;;;;;;;27.94;52.98;98486.58;135730;1261;24248;-64
2023/07/03 07:35:01;;;;;;;22.60;7.50;;;;;;;28.30;48.93;98486.73;135708;1277;22612;-64
2023/07/03 07:38:04;;;;;;;20.60;7.50;;;;;;;28.17;48.72;98485.23;135536;1277;22637;-65
2023/07/03 07:41:06;;;;;;;24.60;8.30;;;;;;;28.36;51.29;98480.14;135563;1277;22540;-64
2023/07/03 07:44:09;;;;;;;23.50;7.80;;;;;;;28.81;51.70;98479.92;135495;1278;22531;-62
2023/07/03 07:47:11;;;;;;;23.50;7.80;;;;;;;28.89;49.45;98477.66;135383;1260;22532;-65
2023/07/03 07:50:13;;;;;;;27.90;8.70;;;;;;;28.70;48.07;98471.46;135505;1277;22546;-65
2023/07/03 07:53:16;;;;;;;23.90;8.20;;;;;;;28.47;48.54;98468.36;135459;1277;22733;-66
2023/07/03 07:56:18;;;;;;;24.70;8.00;;;;;;;28.58;47.70;98465.73;135511;1268;22607;-65
2023/07/03 07:59:21;;;;;;;22.60;7.10;;;;;;;28.55;45.93;98467.02;135712;1277;22539;-65
2023/07/03 08:02:23;;;;;;;23.30;6.80;;;;;;;28.48;47.60;98463.55;135701;1260;24232;-65
2023/07/03 08:05:25;;;;;;;21.30;6.80;;;;;;;28.78;48.21;98461.27;135685;1277;22531;-65
2023/07/03 08:08:28;;;;;;;22.50;6.90;;;;;;;29.13;48.13;98462.58;135728;1260;22545;-65
2023/07/03 08:11:30;;;;;;;24.40;6.60;;;;;;;29.50;46.75;98463.41;135700;1277;22527;-65
2023/07/03 08:14:33;;;;;;;20.60;6.40;;;;;;;29.66;47.50;98465.18;135707;1277;23395;-65
2023/07/03 08:17:35;;;;;;;20.50;6.10;;;;;;;29.94;45.98;98455.02;135679;1277;25425;-65
2023/07/03 08:20:37;;;;;;;21.40;7.00;;;;;;;29.77;44.44;98457.24;135645;1277;22534;-64
2023/07/03 08:23:40;;;;;;;21.70;6.70;;;;;;;29.33;44.79;98452.08;135687;1277;22662;-64
2023/07/03 08:26:42;;;;;;;20.20;6.70;;;;;;;28.74;45.51;98447.30;135728;1261;22536;-64
2023/07/03 08:29:45;;;;;;;22.90;6.50;;;;;;;29.06;46.82;98443.04;135738;1278;22534;-65
2023/07/03 08:32:47;;;;;;;18.70;6.30;;;;;;;29.22;45.13;98439.48;135726;1277;22547;-64
2023/07/03 08:35:49;;;;;;;21.10;6.70;;;;;;;28.38;44.14;98438.02;135701;1260;22642;-66
2023/07/03 08:38:52;;;;;;;22.30;6.80;;;;;;;27.65;47.64;98434.70;135717;1277;24367;-65
2023/07/03 08:41:54;;;;;;;20.20;6.30;;;;;;;27.64;48.07;98434.42;135705;1277;22515;-66
2023/07/03 08:44:57;;;;;;;20.30;7.00;;;;;;;27.55;48.51;98435.58;135714;1277;22566;-65
2023/07/03 08:47:59;;;;;;;21.60;6.50;;;;;;;27.47;49.11;98431.63;135708;1277;22639;-66
2023/07/03 08:51:02;;;;;;;21.70;7.00;;;;;;;28.13;50.42;98425.10;135649;1255;22751;-64
2023/07/03 08:54:04;;;;;;;21.90;7.20;;;;;;;29.01;49.95;98423.02;135745;1277;22535;-64
2023/07/03 08:57:07;;;;;;;19.90;6.50;;;;;;;29.48;48.32;98424.38;135736;1277;22546;-64
2023/07/03 09:00:11;;;;;;;20.70;6.70;;;;;;;29.47;45.86;98424.02;135683;1277;22570;-64
2023/07/03 09:03:13;;;;;;;21.40;7.10;;;;;;;29.32;44.82;98422.92;135701;1277;22546;-62
2023/07/03 09:06:16;;;;;;;20.60;6.60;;;;;;;28.89;43.60;98417.40;135713;1277;22539;-64
2023/07/03 09:09:18;;;;;;;22.10;7.10;;;;;;;28.16;43.90;98420.58;135727;1277;22531;-64
2023/07/03 09:12:20;;;;;;;23.30;6.90;;;;;;;28.27;44.47;98412.34;135703;1277;22538;-64
2023/07/03 09:15:23;;;;;;;24.10;6.90;;;;;;;28.92;45.60;98402.10;135718;1277;22538;-63
2023/07/03 09:18:26;;;;;;;22.30;7.00;;;;;;;29.07;43.41;98402.12;135691;1277;22534;-64
2023/07/03 09:21:28;;;;;;;24.70;7.40;;;;;;;28.78;43.71;98408.00;135697;1277;22547;-64
2023/07/03 09:24:31;;;;;;;21.40;6.70;;;;;;;28.76;43.17;98404.46;135660;1277;24212;-64
2023/07/03 09:27:33;;;;;;;22.60;7.40;;;;;;;28.71;42.91;98409.02;135691;1260;24387;-66
2023/07/03 09:30:35;;;;;;;20.90;6.50;;;;;;;28.11;40.91;98414.58;135711;1277;25428;-65
2023/07/03 09:33:38;;;;;;;20.60;7.70;;;;;;;27.37;41.93;98417.67;135724;1277;22523;-64
2023/07/03 09:36:41;;;;;;;24.90;7.00;;;;;;;27.20;43.21;98418.71;135696;1261;22527;-65
2023/07/03 09:39:44;;;;;;;20.70;7.50;;;;;;;27.44;42.91;98409.38;135633;1260;22553;-64
2023/07/03 09:42:47;;;;;;;21.70;7.20;;;;;;;27.65;42.29;98413.20;135542;1277;22527;-68
2023/07/03 09:45:49;;;;;;;20.20;6.70;;;;;;;28.16;40.87;98411.08;135652;1258;22531;-68
2023/07/03 09:48:52;;;;;;;19.40;6.30;;;;;;;28.51;41.34;98412.44;135671;1277;26937;-66
2023/07/03 09:51:55;;;;;;;19.90;6.70;;;;;;;28.77;40.70;98409.42;135692;1277;22548;-63
2023/07/03 09:54:57;;;;;;;21.00;7.10;;;;;;;28.62;39.42;98406.02;135697;1277;22537;-65
2023/07/03 09:58:00;;;;;;;20.90;7.10;;;;;;;28.51;40.64;98403.20;135652;1277;22664;-63
2023/07/03 10:01:02;;;;;;;23.90;6.30;;;;;;;28.68;39.88;98407.19;135662;1257;22586;-64
2023/07/03 10:04:05;;;;;;;22.10;6.50;;;;;;;28.89;39.66;98399.09;135658;1277;22565;-64
2023/07/03 10:07:07;;;;;;;20.40;6.70;;;;;;;29.57;39.00;98398.42;135595;1257;22700;-65
2023/07/03 10:10:11;;;;;;;19.10;6.30;;;;;;;29.88;37.16;98400.42;135604;1274;22769;-65
2023/07/03 10:13:13;;;;;;;21.40;6.40;;;;;;;30.23;37.28;98402.47;135673;1259;22556;-62
2023/07/03 10:16:16;;;;;;;20.20;6.30;;;;;;;30.34;36.21;98393.54;135704;1277;22573;-62
2023/07/03 10:19:18;;;;;;;20.60;6.50;;;;;;;30.38;37.35;98396.56;135625;1277;22534;-63
2023/07/03 10:22:21;;;;;;;19.70;6.30;;;;;;;30.70;36.02;98395.09;135700;1277;22650;-62
2023/07/03 10:25:23;;;;;;;18.20;6.10;;;;;;;29.96;34.42;98399.27;135706;1277;25300;-62
2023/07/03 10:28:26;;;;;;;21.80;6.10;;;;;;;29.38;36.10;98399.32;135700;1260;24273;-63
2023/07/03 10:31:28;;;;;;;18.60;5.90;;;;;;;29.29;37.83;98402.79;135640;1274;22538;-63
2023/07/03 10:34:31;;;;;;;18.00;6.30;;;;;;;29.68;37.82;98395.65;135738;1259;22520;-64
2023/07/03 10:37:33;;;;;;;19.70;6.20;;;;;;;30.30;36.41;98389.17;135684;1254;22551;-65
2023/07/03 10:40:36;;;;;;;20.20;6.70;;;;;;;30.11;35.62;98397.02;135655;1277;22549;-65
2023/07/03 10:43:39;;;;;;;19.70;6.50;;;;;;;29.27;36.66;98399.33;135678;1277;22668;-62
2023/07/03 10:46:41;;;;;;;22.70;7.00;;;;;;;28.66;37.56;98399.52;135730;1277;22538;-61
2023/07/03 10:49:44;;;;;;;19.30;6.80;;;;;;;28.41;37.90;98401.61;135658;1277;24223;-61
2023/07/03 10:52:46;;;;;;;22.20;7.30;;;;;;;28.42;37.89;98404.06;135712;1277;24266;-65
2023/07/03 10:55:49;;;;;;;21.80;8.10;;;;;;;28.15;37.31;98404.08;135695;1273;22540;-63
2023/07/03 10:58:51;;;;;;;25.00;8.20;;;;;;;27.54;38.20;98409.96;135688;1270;24204;-63
2023/07/03 11:01:54;;;;;;;23.50;8.40;;;;;;;27.65;39.50;98411.70;135670;1273;22537;-68
2023/07/03 11:04:56;;;;;;;25.10;9.30;;;;;;;28.09;38.23;98403.45;135747;1261;22531;-63
2023/07/03 11:07:59;;;;;;;21.50;8.00;;;;;;;28.53;38.03;98395.67;135683;1277;22524;-64
2023/07/03 11:11:02;;;;;;;24.70;8.60;;;;;;;28.90;36.97;98391.75;135655;1259;22520;-64
2023/07/03 11:14:04;;;;;;;22.50;8.80;;;;;;;29.17;35.52;98402.10;135737;1277;22577;-66
2023/07/03 11:17:07;;;;;;;22.60;8.50;;;;;;;29.17;36.52;98402.03;135695;1273;22640;-64
2023/07/03 11:20:09;;;;;;;22.90;8.30;;;;;;;28.13;35.67;98407.69;135629;1270;22706;-67
2023/07/03 11:23:12;;;;;;;22.10;8.10;;;;;;;27.47;36.62;98405.78;135713;1260;22577;-67
2023/07/03 11:26:15;;;;;;;23.50;7.90;;;;;;;27.36;37.63;98410.60;135696;1271;22559;-63
2023/07/03 11:29:17;;;;;;;21.70;8.20;;;;;;;26.94;37.73;98418.19;135688;1270;22589;-64
2023/07/03 11:32:20;;;;;;;24.50;8.20;;;;;;;27.23;38.03;98409.06;135636;1260;22543;-65
2023/07/03 11:35:22;;;;;;;25.70;8.90;;;;;;;27.79;36.16;98394.27;135679;1273;22537;-64
2023/07/03 11:38:25;;;;;;;22.80;8.30;;;;;;;28.27;35.31;98394.37;135661;1275;22535;-65
2023/07/03 11:41:27;;;;;;;22.30;8.20;;;;;;;28.92;34.64;98395.27;135713;1260;22539;-64
2023/07/03 11:44:30;;;;;;;23.70;8.80;;;;;;;29.02;35.11;98384.34;135666;1277;22658;-63
2023/07/03 11:47:33;;;;;;;25.20;8.50;;;;;;;28.80;33.78;98393.15;135648;1259;22562;-66
2023/07/03 11:50:36;;;;;;;24.50;8.80;;;;;;;28.61;33.19;98411.21;135697;1270;22635;-63
2023/07/03 11:53:38;;;;;;;23.60;8.50;;;;;;;28.72;33.32;98406.52;135651;1271;22643;-67
2023/07/03 11:56:41;;;;;;;23.40;8.30;;;;;;;28.90;32.82;98407.61;135695;1256;22533;-62
2023/07/03 11:59:43;;;;;;;22.30;8.70;;;;;;;29.06;32.19;98403.67;135648;1277;22552;-64
2023/07/03 12:02:46;;;;;;;21.90;8.60;;;;;;;29.28;31.97;98404.04;135679;1259;22533;-64
2023/07/03 12:05:49;;;;;;;25.00;8.50;;;;;;;29.47;31.83;98398.57;135678;1277;22523;-63
2023/07/03 12:08:51;;;;;;;25.60;8.60;;;;;;;29.65;31.97;98399.56;135672;1277;24243;-63
2023/07/03 12:11:54;;;;;;;23.10;7.90;;;;;;;29.04;32.02;98411.86;135701;1277;22531;-63
2023/07/03 12:14:57;;;;;;;25.00;8.70;;;;;;;28.68;29.80;98426.89;135689;1277;22510;-63
2023/07/03 12:18:00;;;;;;;25.20;8.90;;;;;;;28.33;30.51;98420.17;135674;1277;26505;-65
2023/07/03 12:21:02;;;;;;;24.90;8.80;;;;;;;28.74;31.86;98418.55;135648;1277;22544;-62
2023/07/03 12:24:05;;;;;;;26.00;9.10;;;;;;;29.11;31.18;98409.64;135660;1277;22557;-62
2023/07/03 12:27:08;;;;;;;25.90;8.70;;;;;;;29.39;31.29;98409.73;135713;1277;22520;-62
2023/07/03 12:30:10;;;;;;;24.50;9.20;;;;;;;29.49;31.31;98416.92;135689;1277;22554;-62
2023/07/03 12:33:13;;;;;;;24.60;8.40;;;;;;;29.81;31.09;98419.91;135683;1277;22564;-62
2023/07/03 12:36:16;;;;;;;24.10;8.40;;;;;;;29.92;30.85;98418.10;135703;1277;22517;-63
2023/07/03 12:39:19;;;;;;;22.40;8.30;;;;;;;30.01;31.09;98412.66;135687;1277;22536;-63
2023/07/03 12:42:21;;;;;;;22.60;8.40;;;;;;;29.57;30.97;98418.63;135717;1277;22538;-64
2023/07/03 12:45:24;;;;;;;26.70;9.10;;;;;;;29.34;30.82;98417.30;135627;1258;22583;-62
2023/07/03 12:48:27;;;;;;;21.70;8.40;;;;;;;29.78;31.20;98412.78;135699;1277;22645;-63
2023/07/03 12:51:29;;;;;;;23.80;8.20;;;;;;;29.64;31.04;98410.02;135694;1277;25259;-63
2023/07/03 12:54:32;;;;;;;23.00;8.20;;;;;;;29.42;31.86;98408.81;135583;1277;22526;-63
2023/07/03 12:57:34;;;;;;;24.50;8.90;;;;;;;28.75;31.31;98414.16;135705;1277;22680;-64
2023/07/03 13:00:37;;;;;;;24.70;8.80;;;;;;;28.42;31.90;98408.88;135688;1277;23876;-66
2023/07/03 13:03:40;;;;;;;22.60;8.60;;;;;;;28.49;32.84;98409.48;135650;1277;22523;-64
2023/07/03 13:06:42;;;;;;;23.50;9.00;;;;;;;29.33;32.84;98408.25;135673;1277;22661;-64
2023/07/03 13:09:45;;;;;;;23.60;9.50;;;;;;;29.86;32.13;98394.27;135695;1277;22555;-63
2023/07/03 13:12:47;;;;;;;24.30;8.40;;;;;;;29.79;31.35;98409.95;135669;1277;22530;-64
2023/07/03 13:15:50;;;;;;;24.50;9.50;;;;;;;29.38;32.05;98402.69;135668;1277;22527;-64
2023/07/03 13:18:52;;;;;;;23.80;8.80;;;;;;;29.62;32.23;98404.92;135555;1255;22631;-64
2023/07/03 13:21:55;;;;;;;23.80;8.80;;;;;;;29.56;32.34;98407.85;135545;1277;22561;-64
2023/07/03 13:24:58;;;;;;;26.00;9.50;;;;;;;29.50;33.20;98394.21;135673;1273;22552;-63
2023/07/03 13:28:00;;;;;;;23.40;9.30;;;;;;;30.04;33.29;98388.45;135732;1277;22543;-65
2023/07/03 13:31:03;;;;;;;24.70;9.60;;;;;;;29.79;32.17;98394.11;135732;1273;22551;-66
2023/07/03 13:34:06;;;;;;;26.40;9.50;;;;;;;30.00;31.97;98398.82;135689;1273;24410;-64
2023/07/03 13:37:09;;;;;;;25.10;10.40;;;;;;;29.88;31.81;98398.41;135434;1277;22520;-66
2023/07/03 13:40:12;;;;;;;24.60;9.00;;;;;;;30.05;31.86;98385.73;135495;1277;22523;-64
2023/07/03 13:43:14;;;;;;;29.60;10.20;;;;;;;29.81;32.04;98380.11;135491;1277;22644;-67
2023/07/03 13:46:17;;;;;;;27.00;10.20;;;;;;;29.61;33.07;98389.02;135553;1277;22538;-67
2023/07/03 13:49:19;;;;;;;25.40;9.20;;;;;;;29.24;33.15;98392.61;135482;1259;22551;-66
2023/07/03 13:52:21;;;;;;;26.00;9.70;;;;;;;29.72;32.89;98381.23;135449;1277;22552;-65
2023/07/03 13:55:24;;;;;;;25.50;9.50;;;;;;;30.09;31.94;98382.80;135607;1259;22545;-66
2023/07/03 13:58:28;;;;;;;24.90;10.20;;;;;;;30.47;32.82;98376.37;135616;1256;22592;-67
2023/07/03 14:01:31;;;;;;;23.20;8.90;;;;;;;30.78;32.06;98373.61;135711;1277;22740;-68